createdAt,value
2023-01-19T00:06:22.397Z,5.13
2023-01-19T00:10:04.249Z,5.18
2023-01-19T00:13:46.664Z,5.13
2023-01-19T00:17:39.359Z,5.15
2023-01-19T00:21:03.193Z,5.16
2023-01-19T00:32:25.688Z,5.04
2023-01-19T00:36:19.634Z,4.66
2023-01-19T00:39:52.714Z,5.04
2023-01-19T00:43:34.008Z,4.97
2023-01-19T00:46:45.836Z,4.93
2023-01-19T00:50:04.177Z,4.91
2023-01-19T00:53:21.423Z,4.58
2023-01-19T01:00:33.466Z,4.85
2023-01-19T01:08:35.792Z,4.46
2023-01-19T01:12:25.930Z,4.69
2023-01-19T01:19:59.540Z,4.18
2023-01-19T01:23:35.723Z,4.59
2023-01-19T01:27:00.999Z,4.68
2023-01-19T01:30:16.256Z,4.59
2023-01-19T01:33:40.403Z,4.60
2023-01-19T01:37:41.617Z,4.57
2023-01-19T01:49:00.189Z,4.44
2023-01-19T01:53:07.520Z,4.48
2023-01-19T01:56:39.391Z,4.41
2023-01-19T02:00:02.563Z,4.42
2023-01-19T02:03:40.435Z,4.35
2023-01-19T02:07:46.240Z,4.22
2023-01-19T02:11:17.689Z,4.21
2023-01-19T02:15:37.725Z,4.20
2023-01-19T02:19:01.210Z,4.01
2023-01-19T02:22:34.076Z,4.21
2023-01-19T02:26:10.340Z,4.19
2023-01-19T02:29:33.646Z,3.70
2023-01-19T02:32:56.232Z,4.17
2023-01-19T02:36:28.137Z,4.15
2023-01-19T02:39:49.984Z,3.99
2023-01-19T02:43:24.230Z,4.08
2023-01-19T02:47:00.566Z,3.80
2023-01-19T02:50:28.980Z,4.16
2023-01-19T02:58:25.316Z,4.01
2023-01-19T03:02:07.497Z,4.01
2023-01-19T03:06:05.240Z,4.06
2023-01-19T03:09:41.112Z,4.04
2023-01-19T03:17:01.186Z,3.70
2023-01-19T03:20:14.867Z,3.98
2023-01-19T03:23:37.112Z,3.95
2023-01-19T03:27:09.875Z,3.99
2023-01-19T03:30:38.526Z,3.96
2023-01-19T03:49:25.416Z,4.37
2023-01-19T03:52:42.785Z,4.37
2023-01-19T03:56:27.680Z,3.49
2023-01-19T03:59:54.324Z,3.78
2023-01-19T04:02:59.748Z,3.37
2023-01-19T04:06:31.328Z,3.79
2023-01-19T04:09:51.288Z,3.77
2023-01-19T04:13:06.075Z,3.75
2023-01-19T04:16:23.377Z,3.71
2023-01-19T04:19:27.858Z,3.71
2023-01-19T04:22:48.148Z,3.68
2023-01-19T04:26:17.337Z,3.25
2023-01-19T04:33:25.096Z,3.47
2023-01-19T04:37:24.723Z,3.73
2023-01-19T04:40:49.546Z,3.68
2023-01-19T04:47:31.394Z,3.57
2023-01-19T04:58:45.376Z,3.60
2023-01-19T05:01:57.209Z,3.64
2023-01-19T05:05:44.401Z,3.63
2023-01-19T05:08:55.828Z,3.60
2023-01-19T05:12:07.107Z,3.63
2023-01-19T05:15:48.427Z,3.67
2023-01-19T05:18:57.373Z,3.59
2023-01-19T05:22:30.699Z,3.63
2023-01-19T05:30:02.489Z,3.68
2023-01-19T05:37:15.495Z,3.61
2023-01-19T05:40:39.748Z,3.66
2023-01-19T05:56:31.737Z,3.33
2023-01-19T06:42:37.369Z,4.52
2023-01-19T09:59:26.237Z,4.83
2023-01-19T10:02:54.559Z,4.72
2023-01-19T10:06:57.742Z,4.54
2023-01-19T10:10:19.276Z,4.16
2023-01-19T10:18:13.356Z,4.40
2023-01-19T10:21:52.555Z,4.39
2023-01-19T10:25:42.294Z,4.29
2023-01-19T10:48:20.300Z,4.05
2023-01-19T11:32:46.491Z,3.76
2023-01-19T11:36:28.219Z,3.82
2023-01-19T11:48:04.529Z,3.84
2023-01-19T12:08:20.539Z,3.89
2023-01-19T12:49:36.570Z,3.91
2023-01-19T14:28:40.466Z,3.29
2023-01-19T14:32:27.244Z,3.60
2023-01-19T14:35:55.628Z,3.32
2023-01-19T14:43:08.011Z,3.33
2023-01-19T14:46:24.381Z,3.95
2023-01-19T14:49:38.475Z,3.81
2023-01-19T14:52:52.709Z,3.75
2023-01-19T14:56:54.548Z,3.62
2023-01-19T15:00:19.186Z,3.49
2023-01-19T15:03:43.367Z,3.48
2023-01-19T15:07:00.408Z,3.17
2023-01-19T15:10:21.301Z,3.36
2023-01-19T15:37:46.858Z,3.23
2023-01-19T16:08:54.037Z,3.13
2023-01-19T16:12:09.232Z,2.87
2023-01-19T16:15:58.293Z,3.08
2023-01-19T17:10:00.490Z,3.12
2023-01-19T18:13:50.671Z,2.88
2023-01-19T18:59:03.139Z,2.65
2023-01-19T19:10:15.811Z,2.63
2023-01-19T19:21:12.256Z,2.65
2023-01-19T19:28:35.300Z,2.52
2023-01-19T19:31:37.400Z,2.51
2023-01-19T19:35:38.119Z,2.50
2023-01-19T19:38:57.269Z,2.61
2023-01-19T19:41:59.379Z,2.37
2023-01-19T19:45:50.301Z,2.52
2023-01-19T19:48:59.377Z,2.20
2023-01-19T19:52:08.233Z,2.46
2023-01-19T19:55:44.279Z,2.19
2023-01-19T19:58:58.744Z,2.40
2023-01-19T21:30:26.620Z,1.90
2023-01-19T21:33:47.648Z,1.51
2023-01-19T21:37:10.976Z,1.91
2023-01-19T21:40:45.885Z,1.92
2023-01-19T21:48:37.209Z,2.08
2023-01-19T21:52:06.438Z,2.21
2023-01-19T21:56:10.339Z,1.87
2023-01-19T21:59:14.536Z,2.19
2023-01-19T22:02:39.560Z,2.29
2023-01-19T22:06:13.152Z,1.77
2023-01-19T22:09:24.710Z,2.03
2023-01-19T22:12:56.416Z,2.23
2023-01-19T22:16:25.397Z,2.25
2023-01-19T22:20:01.917Z,2.15
2023-01-19T22:23:21.400Z,2.02
2023-01-19T22:26:57.339Z,1.94
2023-01-19T22:30:08.310Z,2.21
2023-01-19T22:33:28.556Z,2.21
2023-01-19T22:36:34.503Z,2.15
2023-01-19T22:47:21.728Z,1.73
2023-01-19T22:50:58.973Z,1.91
2023-01-19T22:58:17.004Z,2.21
2023-01-19T23:01:44.368Z,2.16
2023-01-19T23:09:02.844Z,2.19
2023-01-19T23:12:18.377Z,2.11
2023-01-19T23:16:00.732Z,2.12
2023-01-19T23:19:21.422Z,1.63
2023-01-19T23:22:26.355Z,1.82
2023-01-19T23:26:16.455Z,2.14
2023-01-19T23:29:49.386Z,1.96
2023-01-19T23:32:57.891Z,2.13
2023-01-19T23:36:14.183Z,2.08
2023-01-19T23:39:29.400Z,1.97
2023-01-19T23:42:38.333Z,1.98
2023-01-19T23:45:55.454Z,1.68
2023-01-19T23:49:23.073Z,1.99
2023-01-19T23:56:29.424Z,2.03
2023-01-19T23:59:44.677Z,2.01
